createdAt,value
2022-10-24T00:08:33.198Z,14.19
2022-10-24T00:28:33.182Z,14.18
2022-10-24T00:48:33.160Z,14.18
2022-10-24T01:08:33.143Z,14.27
2022-10-24T01:28:33.112Z,14.21
2022-10-24T01:48:33.085Z,14.16
2022-10-24T02:08:33.063Z,14.26
2022-10-24T02:28:33.029Z,14.29
2022-10-24T02:48:33.010Z,14.17
2022-10-24T03:08:32.993Z,14.12
2022-10-24T03:28:32.949Z,14.12
2022-10-24T03:48:32.926Z,14.01
2022-10-24T04:08:32.914Z,14.00
2022-10-24T04:28:32.891Z,13.99
2022-10-24T04:48:32.858Z,14.00
2022-10-24T05:08:32.833Z,13.98
2022-10-24T05:28:32.813Z,13.98
2022-10-24T05:48:32.778Z,13.96
2022-10-24T06:08:32.762Z,13.97
2022-10-24T06:28:32.745Z,13.96
2022-10-24T06:48:32.777Z,14.02
2022-10-24T07:08:32.705Z,14.12
2022-10-24T07:28:32.660Z,14.16
2022-10-24T07:48:32.642Z,14.27
2022-10-24T08:08:32.618Z,14.25
2022-10-24T08:28:32.598Z,14.29
2022-10-24T08:48:32.572Z,14.39
2022-10-24T09:08:32.537Z,14.49
2022-10-24T09:28:32.520Z,14.58
2022-10-24T09:48:32.494Z,14.67
2022-10-24T10:08:32.477Z,14.69
2022-10-24T10:28:32.430Z,14.59
2022-10-24T10:48:32.405Z,14.61
2022-10-24T11:08:32.404Z,14.61
2022-10-24T11:28:32.347Z,14.59
2022-10-24T11:48:32.348Z,14.43
2022-10-24T12:08:32.304Z,14.30
2022-10-24T12:28:32.303Z,14.21
2022-10-24T12:48:32.257Z,14.24
2022-10-24T13:08:32.229Z,14.14
2022-10-24T13:28:32.219Z,14.06
2022-10-24T13:48:32.178Z,14.00
2022-10-24T14:08:32.153Z,13.91
2022-10-24T14:28:32.162Z,13.89
2022-10-24T14:48:32.116Z,13.83
2022-10-24T15:08:32.096Z,13.78
2022-10-24T15:28:32.065Z,13.76
2022-10-24T15:48:32.031Z,13.70
2022-10-24T16:08:32.013Z,13.60
2022-10-24T16:28:31.996Z,13.51
2022-10-24T16:48:31.960Z,13.39
2022-10-24T17:08:31.948Z,13.31
2022-10-24T17:28:31.927Z,13.21
2022-10-24T17:48:31.891Z,13.09
2022-10-24T18:08:31.869Z,12.97
2022-10-24T18:28:31.846Z,12.86
2022-10-24T18:48:31.831Z,12.69
2022-10-24T19:08:31.815Z,12.68
2022-10-24T19:28:31.777Z,12.60
2022-10-24T19:48:31.750Z,12.52
2022-10-24T20:08:31.747Z,12.34
2022-10-24T20:28:31.705Z,12.32
2022-10-24T20:48:31.690Z,12.19
2022-10-24T21:08:31.666Z,11.92
2022-10-24T21:28:31.645Z,11.91
2022-10-24T21:48:31.616Z,11.82
2022-10-24T22:08:31.605Z,11.85
2022-10-24T22:28:31.615Z,11.83
2022-10-24T22:48:31.611Z,11.66
2022-10-24T23:08:31.533Z,11.54
2022-10-24T23:28:31.554Z,11.52
2022-10-24T23:48:31.480Z,11.40
